<?xml version="1.0" encoding="UTF-8" standalone="no" ?>
<gpx xmlns="http://www.topografix.com/GPX/1/1" xmlns:xsi="http://www.w3.org/2001/XMLSchema-instance" xsi:schemaLocation="http://www.topografix.com/GPX/1/1 http://www.topografix.com/GPX/1/1/gpx.xsd" version="1.1" creator="VisuGPX - https://www.visugpx.com">
  <metadata>
    <name>Boucle en Dordogne (14juil22)</name>
  </metadata>
  <trk>
    <name><![CDATA[P3_Margueron-Frontenac (42) ]]></name>
    <extensions>
      <line xmlns="http://www.topografix.com/GPX/gpx_style/0/2">
        <color>ff00f7</color>
        <width>4</width>
      </line>
    </extensions>
    <trkseg>
      <trkpt lat="44.762" lon="0.24956">
        <ele>123.487825</ele>
        <time>2022-07-11T18:43:12.457Z</time>
      </trkpt>
      <trkpt lat="44.76209" lon="0.24938">
        <ele>123.401937</ele>
        <time>2022-07-11T18:43:15.025Z</time>
      </trkpt>
      <trkpt lat="44.76217" lon="0.24899">
        <ele>123.247533</ele>
        <time>2022-07-11T18:43:19.932Z</time>
      </trkpt>
      <trkpt lat="44.76218" lon="0.24788">
        <ele>122.827266</ele>
        <time>2022-07-11T18:43:32.780Z</time>
      </trkpt>
      <trkpt lat="44.76216" lon="0.24682">
        <ele>122.464525</ele>
        <time>2022-07-11T18:43:44.551Z</time>
      </trkpt>
      <trkpt lat="44.76303" lon="0.24381">
        <ele>122.596018</ele>
        <time>2022-07-11T18:44:24.440Z</time>
      </trkpt>
      <trkpt lat="44.76304" lon="0.24324">
        <ele>122.890971</ele>
        <time>2022-07-11T18:44:33.924Z</time>
      </trkpt>
      <trkpt lat="44.76307" lon="0.24207">
        <ele>124.287384</ele>
        <time>2022-07-11T18:44:55.744Z</time>
      </trkpt>
      <trkpt lat="44.76303" lon="0.24079">
        <ele>126.606761</ele>
        <time>2022-07-11T18:45:23.254Z</time>
      </trkpt>
      <trkpt lat="44.76311" lon="0.2402">
        <ele>127.680404</ele>
        <time>2022-07-11T18:45:35.663Z</time>
      </trkpt>
      <trkpt lat="44.76325" lon="0.2395">
        <ele>127.685991</ele>
        <time>2022-07-11T18:45:48.353Z</time>
      </trkpt>
      <trkpt lat="44.76326" lon="0.23861">
        <ele>127.610222</ele>
        <time>2022-07-11T18:46:01.247Z</time>
      </trkpt>
      <trkpt lat="44.76373" lon="0.23521">
        <ele>122.711964</ele>
        <time>2022-07-11T18:46:36.068Z</time>
      </trkpt>
      <trkpt lat="44.76419" lon="0.23079">
        <ele>111.378679</ele>
        <time>2022-07-11T18:47:18.200Z</time>
      </trkpt>
      <trkpt lat="44.76433" lon="0.23005">
        <ele>109.559825</ele>
        <time>2022-07-11T18:47:25.992Z</time>
      </trkpt>
      <trkpt lat="44.76459" lon="0.22922">
        <ele>107.759239</ele>
        <time>2022-07-11T18:47:35.063Z</time>
      </trkpt>
      <trkpt lat="44.76476" lon="0.22841">
        <ele>106.085647</ele>
        <time>2022-07-11T18:47:43.503Z</time>
      </trkpt>
      <trkpt lat="44.76474" lon="0.22786">
        <ele>104.983445</ele>
        <time>2022-07-11T18:47:48.943Z</time>
      </trkpt>
      <trkpt lat="44.76452" lon="0.22643">
        <ele>101.815251</ele>
        <time>2022-07-11T18:48:03.020Z</time>
      </trkpt>
      <trkpt lat="44.76457" lon="0.2246">
        <ele>97.994433</ele>
        <time>2022-07-11T18:48:21.167Z</time>
      </trkpt>
      <trkpt lat="44.76434" lon="0.22357">
        <ele>95.934099</ele>
        <time>2022-07-11T18:48:32.224Z</time>
      </trkpt>
      <trkpt lat="44.76435" lon="0.22338">
        <ele>95.573036</ele>
        <time>2022-07-11T18:48:34.104Z</time>
      </trkpt>
      <trkpt lat="44.76439" lon="0.22331">
        <ele>95.396662</ele>
        <time>2022-07-11T18:48:35.001Z</time>
      </trkpt>
      <trkpt lat="44.76485" lon="0.22304">
        <ele>94.035236</ele>
        <time>2022-07-11T18:48:41.915Z</time>
      </trkpt>
      <trkpt lat="44.76552" lon="0.22265">
        <ele>91.958887</ele>
        <time>2022-07-11T18:48:51.818Z</time>
      </trkpt>
      <trkpt lat="44.7656" lon="0.22254">
        <ele>91.640792</ele>
        <time>2022-07-11T18:48:53.344Z</time>
      </trkpt>
      <trkpt lat="44.76567" lon="0.22226">
        <ele>91.036713</ele>
        <time>2022-07-11T18:48:56.174Z</time>
      </trkpt>
      <trkpt lat="44.76565" lon="0.22208">
        <ele>90.661991</ele>
        <time>2022-07-11T18:48:58.030Z</time>
      </trkpt>
      <trkpt lat="44.76507" lon="0.22081">
        <ele>88.614462</ele>
        <time>2022-07-11T18:49:13.301Z</time>
      </trkpt>
      <trkpt lat="44.76505" lon="0.22076">
        <ele>88.570381</ele>
        <time>2022-07-11T18:49:13.850Z</time>
      </trkpt>
      <trkpt lat="44.7649" lon="0.22031">
        <ele>88.159878</ele>
        <time>2022-07-11T18:49:19.275Z</time>
      </trkpt>
      <trkpt lat="44.76493" lon="0.21985">
        <ele>87.786872</ele>
        <time>2022-07-11T18:49:24.595Z</time>
      </trkpt>
      <trkpt lat="44.76534" lon="0.2189">
        <ele>87.616698</ele>
        <time>2022-07-11T18:49:39.848Z</time>
      </trkpt>
      <trkpt lat="44.76536" lon="0.21861">
        <ele>87.86926</ele>
        <time>2022-07-11T18:49:44.632Z</time>
      </trkpt>
      <trkpt lat="44.76521" lon="0.21817">
        <ele>88.295508</ele>
        <time>2022-07-11T18:49:52.816Z</time>
      </trkpt>
      <trkpt lat="44.76409" lon="0.2157">
        <ele>90.97185</ele>
        <time>2022-07-11T18:50:42.678Z</time>
      </trkpt>
      <trkpt lat="44.76401" lon="0.2154">
        <ele>91.282359</ele>
        <time>2022-07-11T18:50:47.920Z</time>
      </trkpt>
      <trkpt lat="44.76395" lon="0.21465">
        <ele>91.872335</ele>
        <time>2022-07-11T18:51:00.009Z</time>
      </trkpt>
      <trkpt lat="44.76419" lon="0.21291">
        <ele>92.166071</ele>
        <time>2022-07-11T18:51:24.862Z</time>
      </trkpt>
      <trkpt lat="44.76418" lon="0.21231">
        <ele>92.263019</ele>
        <time>2022-07-11T18:51:31.967Z</time>
      </trkpt>
      <trkpt lat="44.76404" lon="0.21197">
        <ele>91.913374</ele>
        <time>2022-07-11T18:51:36.342Z</time>
      </trkpt>
      <trkpt lat="44.76354" lon="0.2113">
        <ele>91.046167</ele>
        <time>2022-07-11T18:51:46.809Z</time>
      </trkpt>
      <trkpt lat="44.76289" lon="0.20975">
        <ele>89.859048</ele>
        <time>2022-07-11T18:52:06.310Z</time>
      </trkpt>
      <trkpt lat="44.76186" lon="0.2082">
        <ele>89.380107</ele>
        <time>2022-07-11T18:52:35.031Z</time>
      </trkpt>
      <trkpt lat="44.76163" lon="0.20765">
        <ele>89.192466</ele>
        <time>2022-07-11T18:52:44.785Z</time>
      </trkpt>
      <trkpt lat="44.7615" lon="0.20731">
        <ele>89.082344</ele>
        <time>2022-07-11T18:52:49.717Z</time>
      </trkpt>
      <trkpt lat="44.7613" lon="0.20703">
        <ele>88.964048</ele>
        <time>2022-07-11T18:52:54.853Z</time>
      </trkpt>
      <trkpt lat="44.76084" lon="0.20667">
        <ele>88.747917</ele>
        <time>2022-07-11T18:53:03.575Z</time>
      </trkpt>
      <trkpt lat="44.76035" lon="0.20662">
        <ele>88.037539</ele>
        <time>2022-07-11T18:53:11.218Z</time>
      </trkpt>
      <trkpt lat="44.75996" lon="0.20666">
        <ele>87.375705</ele>
        <time>2022-07-11T18:53:17.016Z</time>
      </trkpt>
      <trkpt lat="44.75981" lon="0.20658">
        <ele>87.092349</ele>
        <time>2022-07-11T18:53:19.477Z</time>
      </trkpt>
      <trkpt lat="44.75944" lon="0.20628">
        <ele>86.369646</ele>
        <time>2022-07-11T18:53:25.810Z</time>
      </trkpt>
      <trkpt lat="44.75854" lon="0.20519">
        <ele>86.479367</ele>
        <time>2022-07-11T18:53:46.282Z</time>
      </trkpt>
      <trkpt lat="44.75816" lon="0.20511">
        <ele>86.907404</ele>
        <time>2022-07-11T18:53:55.079Z</time>
      </trkpt>
      <trkpt lat="44.75746" lon="0.20472">
        <ele>87.991019</ele>
        <time>2022-07-11T18:54:17.206Z</time>
      </trkpt>
      <trkpt lat="44.75637" lon="0.20419">
        <ele>91.986845</ele>
        <time>2022-07-11T18:54:55.680Z</time>
      </trkpt>
      <trkpt lat="44.75631" lon="0.20361">
        <ele>93.410757</ele>
        <time>2022-07-11T18:55:09.077Z</time>
      </trkpt>
      <trkpt lat="44.75617" lon="0.20307">
        <ele>94.537129</ele>
        <time>2022-07-11T18:55:21.797Z</time>
      </trkpt>
      <trkpt lat="44.75532" lon="0.2006">
        <ele>98.779855</ele>
        <time>2022-07-11T18:56:14.493Z</time>
      </trkpt>
      <trkpt lat="44.75484" lon="0.19774">
        <ele>101.693468</ele>
        <time>2022-07-11T18:57:04.078Z</time>
      </trkpt>
      <trkpt lat="44.75462" lon="0.19676">
        <ele>102.533341</ele>
        <time>2022-07-11T18:57:19.779Z</time>
      </trkpt>
      <trkpt lat="44.75433" lon="0.19616">
        <ele>103.312103</ele>
        <time>2022-07-11T18:57:31.080Z</time>
      </trkpt>
      <trkpt lat="44.75268" lon="0.19269">
        <ele>111.314875</ele>
        <time>2022-07-11T18:58:58.415Z</time>
      </trkpt>
      <trkpt lat="44.75201" lon="0.19114">
        <ele>115.090975</ele>
        <time>2022-07-11T18:59:42.183Z</time>
      </trkpt>
      <trkpt lat="44.75175" lon="0.19067">
        <ele>116.306184</ele>
        <time>2022-07-11T18:59:55.349Z</time>
      </trkpt>
      <trkpt lat="44.7514" lon="0.19015">
        <ele>117.749237</ele>
        <time>2022-07-11T19:00:09.942Z</time>
      </trkpt>
      <trkpt lat="44.7489" lon="0.18831">
        <ele>116.671246</ele>
        <time>2022-07-11T19:01:00.863Z</time>
      </trkpt>
      <trkpt lat="44.74869" lon="0.1881">
        <ele>116.279313</ele>
        <time>2022-07-11T19:01:04.701Z</time>
      </trkpt>
      <trkpt lat="44.74851" lon="0.18806">
        <ele>116.017255</ele>
        <time>2022-07-11T19:01:07.232Z</time>
      </trkpt>
      <trkpt lat="44.74696" lon="0.18832">
        <ele>113.390605</ele>
        <time>2022-07-11T19:01:29.945Z</time>
      </trkpt>
      <trkpt lat="44.74677" lon="0.1882">
        <ele>113.015635</ele>
        <time>2022-07-11T19:01:33.242Z</time>
      </trkpt>
      <trkpt lat="44.74553" lon="0.18639">
        <ele>114.795194</ele>
        <time>2022-07-11T19:02:14.527Z</time>
      </trkpt>
      <trkpt lat="44.74474" lon="0.18378">
        <ele>120.768514</ele>
        <time>2022-07-11T19:03:25.118Z</time>
      </trkpt>
      <trkpt lat="44.74358" lon="0.18273">
        <ele>121.23</ele>
        <time>2022-07-11T19:03:51.226Z</time>
      </trkpt>
      <trkpt lat="44.74361" lon="0.18106">
        <ele>120.82726</ele>
        <time>2022-07-11T19:04:09.925Z</time>
      </trkpt>
      <trkpt lat="44.74352" lon="0.18078">
        <ele>120.720723</ele>
        <time>2022-07-11T19:04:13.820Z</time>
      </trkpt>
      <trkpt lat="44.74268" lon="0.17967">
        <ele>120.191461</ele>
        <time>2022-07-11T19:04:35.932Z</time>
      </trkpt>
      <trkpt lat="44.74249" lon="0.17925">
        <ele>120.081434</ele>
        <time>2022-07-11T19:04:42.457Z</time>
      </trkpt>
      <trkpt lat="44.74195" lon="0.17772">
        <ele>119.701544</ele>
        <time>2022-07-11T19:05:03.944Z</time>
      </trkpt>
      <trkpt lat="44.74177" lon="0.17744">
        <ele>119.60798</ele>
        <time>2022-07-11T19:05:08.456Z</time>
      </trkpt>
      <trkpt lat="44.74109" lon="0.17671">
        <ele>119.289415</ele>
        <time>2022-07-11T19:05:23.267Z</time>
      </trkpt>
      <trkpt lat="44.74049" lon="0.17584">
        <ele>119.042962</ele>
        <time>2022-07-11T19:05:38.606Z</time>
      </trkpt>
      <trkpt lat="44.73848" lon="0.17407">
        <ele>120.194217</ele>
        <time>2022-07-11T19:06:29.413Z</time>
      </trkpt>
      <trkpt lat="44.7396" lon="0.17128">
        <ele>120.017359</ele>
        <time>2022-07-11T19:07:09.802Z</time>
      </trkpt>
      <trkpt lat="44.73968" lon="0.17103">
        <ele>119.935109</ele>
        <time>2022-07-11T19:07:12.904Z</time>
      </trkpt>
      <trkpt lat="44.73969" lon="0.1704">
        <ele>119.742798</ele>
        <time>2022-07-11T19:07:20.095Z</time>
      </trkpt>
      <trkpt lat="44.73957" lon="0.16513">
        <ele>114.482132</ele>
        <time>2022-07-11T19:08:17.485Z</time>
      </trkpt>
      <trkpt lat="44.73963" lon="0.16422">
        <ele>113.540661</ele>
        <time>2022-07-11T19:08:27.263Z</time>
      </trkpt>
      <trkpt lat="44.74018" lon="0.1622">
        <ele>111.471043</ele>
        <time>2022-07-11T19:08:50.862Z</time>
      </trkpt>
      <trkpt lat="44.74081" lon="0.15982">
        <ele>109.513719</ele>
        <time>2022-07-11T19:09:19.513Z</time>
      </trkpt>
      <trkpt lat="44.74091" lon="0.15969">
        <ele>109.376624</ele>
        <time>2022-07-11T19:09:21.727Z</time>
      </trkpt>
      <trkpt lat="44.74193" lon="0.15903">
        <ele>108.270987</ele>
        <time>2022-07-11T19:09:39.460Z</time>
      </trkpt>
      <trkpt lat="44.74168" lon="0.15778">
        <ele>107.942061</ele>
        <time>2022-07-11T19:09:55.081Z</time>
      </trkpt>
      <trkpt lat="44.74174" lon="0.15775">
        <ele>107.922284</ele>
        <time>2022-07-11T19:09:56.053Z</time>
      </trkpt>
      <trkpt lat="44.74066" lon="0.15394">
        <ele>107.711582</ele>
        <time>2022-07-11T19:10:50.796Z</time>
      </trkpt>
      <trkpt lat="44.74051" lon="0.15326">
        <ele>107.156325</ele>
        <time>2022-07-11T19:10:59.017Z</time>
      </trkpt>
      <trkpt lat="44.74002" lon="0.14992">
        <ele>103.899927</ele>
        <time>2022-07-11T19:11:35.286Z</time>
      </trkpt>
      <trkpt lat="44.73968" lon="0.14871">
        <ele>103.315458</ele>
        <time>2022-07-11T19:11:50.076Z</time>
      </trkpt>
      <trkpt lat="44.73962" lon="0.14852">
        <ele>103.325228</ele>
        <time>2022-07-11T19:11:52.588Z</time>
      </trkpt>
      <trkpt lat="44.7396" lon="0.14847">
        <ele>103.327748</ele>
        <time>2022-07-11T19:11:53.260Z</time>
      </trkpt>
      <trkpt lat="44.73956" lon="0.14833">
        <ele>103.334441</ele>
        <time>2022-07-11T19:11:55.048Z</time>
      </trkpt>
      <trkpt lat="44.73781" lon="0.14193">
        <ele>104.154397</ele>
        <time>2022-07-11T19:13:27.882Z</time>
      </trkpt>
      <trkpt lat="44.73739" lon="0.14053">
        <ele>104.32042</ele>
        <time>2022-07-11T19:13:48.695Z</time>
      </trkpt>
      <trkpt lat="44.73709" lon="0.13998">
        <ele>104.350639</ele>
        <time>2022-07-11T19:13:57.295Z</time>
      </trkpt>
      <trkpt lat="44.73674" lon="0.1395">
        <ele>104.049169</ele>
        <time>2022-07-11T19:14:05.441Z</time>
      </trkpt>
      <trkpt lat="44.73645" lon="0.13926">
        <ele>103.845064</ele>
        <time>2022-07-11T19:14:10.705Z</time>
      </trkpt>
      <trkpt lat="44.73541" lon="0.13871">
        <ele>103.211826</ele>
        <time>2022-07-11T19:14:28.994Z</time>
      </trkpt>
      <trkpt lat="44.73512" lon="0.13851">
        <ele>103.099229</ele>
        <time>2022-07-11T19:14:34.438Z</time>
      </trkpt>
      <trkpt lat="44.73505" lon="0.13843">
        <ele>103.068867</ele>
        <time>2022-07-11T19:14:35.940Z</time>
      </trkpt>
      <trkpt lat="44.7348" lon="0.13801">
        <ele>102.934829</ele>
        <time>2022-07-11T19:14:42.933Z</time>
      </trkpt>
      <trkpt lat="44.73455" lon="0.13672">
        <ele>102.521087</ele>
        <time>2022-07-11T19:14:59.308Z</time>
      </trkpt>
      <trkpt lat="44.73445" lon="0.13586">
        <ele>101.940287</ele>
        <time>2022-07-11T19:15:09.495Z</time>
      </trkpt>
      <trkpt lat="44.73428" lon="0.13437">
        <ele>100.986958</ele>
        <time>2022-07-11T19:15:25.952Z</time>
      </trkpt>
      <trkpt lat="44.73413" lon="0.13281">
        <ele>101.139791</ele>
        <time>2022-07-11T19:15:44.096Z</time>
      </trkpt>
      <trkpt lat="44.73416" lon="0.13193">
        <ele>101.225039</ele>
        <time>2022-07-11T19:15:58.985Z</time>
      </trkpt>
      <trkpt lat="44.73427" lon="0.1306">
        <ele>103.888137</ele>
        <time>2022-07-11T19:16:27.182Z</time>
      </trkpt>
      <trkpt lat="44.73466" lon="0.12909">
        <ele>106.874405</ele>
        <time>2022-07-11T19:17:01.930Z</time>
      </trkpt>
      <trkpt lat="44.73478" lon="0.12851">
        <ele>107.711958</ele>
        <time>2022-07-11T19:17:13.615Z</time>
      </trkpt>
      <trkpt lat="44.73495" lon="0.12811">
        <ele>108.374899</ele>
        <time>2022-07-11T19:17:22.318Z</time>
      </trkpt>
      <trkpt lat="44.7362" lon="0.12587">
        <ele>111.38662</ele>
        <time>2022-07-11T19:18:07.674Z</time>
      </trkpt>
      <trkpt lat="44.7365" lon="0.12522">
        <ele>112.060582</ele>
        <time>2022-07-11T19:18:20.200Z</time>
      </trkpt>
      <trkpt lat="44.73711" lon="0.12315">
        <ele>114.248335</ele>
        <time>2022-07-11T19:18:57.970Z</time>
      </trkpt>
      <trkpt lat="44.73737" lon="0.12194">
        <ele>114.85342</ele>
        <time>2022-07-11T19:19:17.725Z</time>
      </trkpt>
      <trkpt lat="44.73778" lon="0.11838">
        <ele>115.409107</ele>
        <time>2022-07-11T19:20:04.346Z</time>
      </trkpt>
      <trkpt lat="44.73791" lon="0.11685">
        <ele>115.063714</ele>
        <time>2022-07-11T19:20:23.239Z</time>
      </trkpt>
      <trkpt lat="44.73835" lon="0.11426">
        <ele>113.440905</ele>
        <time>2022-07-11T19:20:54.305Z</time>
      </trkpt>
      <trkpt lat="44.73872" lon="0.11204">
        <ele>111.005959</ele>
        <time>2022-07-11T19:21:18.133Z</time>
      </trkpt>
      <trkpt lat="44.73871" lon="0.11192">
        <ele>110.848235</ele>
        <time>2022-07-11T19:21:19.426Z</time>
      </trkpt>
      <trkpt lat="44.73866" lon="0.1116">
        <ele>110.452029</ele>
        <time>2022-07-11T19:21:22.745Z</time>
      </trkpt>
      <trkpt lat="44.73729" lon="0.10773">
        <ele>105.74765</ele>
        <time>2022-07-11T19:22:09.810Z</time>
      </trkpt>
      <trkpt lat="44.73698" lon="0.10672">
        <ele>104.554756</ele>
        <time>2022-07-11T19:22:21.686Z</time>
      </trkpt>
      <trkpt lat="44.73692" lon="0.10624">
        <ele>104.022783</ele>
        <time>2022-07-11T19:22:26.927Z</time>
      </trkpt>
      <trkpt lat="44.73674" lon="0.1032">
        <ele>101.037237</ele>
        <time>2022-07-11T19:22:59.871Z</time>
      </trkpt>
      <trkpt lat="44.73684" lon="0.10079">
        <ele>100.196784</ele>
        <time>2022-07-11T19:23:28.820Z</time>
      </trkpt>
      <trkpt lat="44.73692" lon="0.09925">
        <ele>100.414997</ele>
        <time>2022-07-11T19:23:49.971Z</time>
      </trkpt>
      <trkpt lat="44.73683" lon="0.09783">
        <ele>100.135443</ele>
        <time>2022-07-11T19:24:09.359Z</time>
      </trkpt>
      <trkpt lat="44.73714" lon="0.09653">
        <ele>99.165954</ele>
        <time>2022-07-11T19:24:24.748Z</time>
      </trkpt>
      <trkpt lat="44.73717" lon="0.09427">
        <ele>97.008067</ele>
        <time>2022-07-11T19:24:48.215Z</time>
      </trkpt>
      <trkpt lat="44.73728" lon="0.09338">
        <ele>96.129371</ele>
        <time>2022-07-11T19:24:58.602Z</time>
      </trkpt>
      <trkpt lat="44.7374" lon="0.09298">
        <ele>96.310197</ele>
        <time>2022-07-11T19:25:04.122Z</time>
      </trkpt>
      <trkpt lat="44.73755" lon="0.09272">
        <ele>96.453239</ele>
        <time>2022-07-11T19:25:08.839Z</time>
      </trkpt>
      <trkpt lat="44.73811" lon="0.09215">
        <ele>96.870525</ele>
        <time>2022-07-11T19:25:24.076Z</time>
      </trkpt>
      <trkpt lat="44.73837" lon="0.09196">
        <ele>97.042791</ele>
        <time>2022-07-11T19:25:30.609Z</time>
      </trkpt>
      <trkpt lat="44.73862" lon="0.09159">
        <ele>97.214336</ele>
        <time>2022-07-11T19:25:38.620Z</time>
      </trkpt>
      <trkpt lat="44.7387" lon="0.09129">
        <ele>97.262239</ele>
        <time>2022-07-11T19:25:43.505Z</time>
      </trkpt>
      <trkpt lat="44.73881" lon="0.09028">
        <ele>97.415355</ele>
        <time>2022-07-11T19:25:57.127Z</time>
      </trkpt>
      <trkpt lat="44.7388" lon="0.08982">
        <ele>97.485412</ele>
        <time>2022-07-11T19:26:02.762Z</time>
      </trkpt>
      <trkpt lat="44.73867" lon="0.08926">
        <ele>97.577744</ele>
        <time>2022-07-11T19:26:09.735Z</time>
      </trkpt>
      <trkpt lat="44.73847" lon="0.08883">
        <ele>97.72122</ele>
        <time>2022-07-11T19:26:15.832Z</time>
      </trkpt>
      <trkpt lat="44.74033" lon="0.08379">
        <ele>99.994197</ele>
        <time>2022-07-11T19:27:38.928Z</time>
      </trkpt>
      <trkpt lat="44.74174" lon="0.07996">
        <ele>101.68375</ele>
        <time>2022-07-11T19:28:38.962Z</time>
      </trkpt>
      <trkpt lat="44.74237" lon="0.07825">
        <ele>102.907119</ele>
        <time>2022-07-11T19:29:08.743Z</time>
      </trkpt>
      <trkpt lat="44.74246" lon="0.07803">
        <ele>103.032606</ele>
        <time>2022-07-11T19:29:12.965Z</time>
      </trkpt>
      <trkpt lat="44.7427" lon="0.07738">
        <ele>103.014059</ele>
        <time>2022-07-11T19:29:24.156Z</time>
      </trkpt>
      <trkpt lat="44.7428" lon="0.07735">
        <ele>103.010654</ele>
        <time>2022-07-11T19:29:26.095Z</time>
      </trkpt>
      <trkpt lat="44.74289" lon="0.07684">
        <ele>102.997164</ele>
        <time>2022-07-11T19:29:33.675Z</time>
      </trkpt>
      <trkpt lat="44.74292" lon="0.07676">
        <ele>102.995061</ele>
        <time>2022-07-11T19:29:34.909Z</time>
      </trkpt>
      <trkpt lat="44.7431" lon="0.07625">
        <ele>102.980596</ele>
        <time>2022-07-11T19:29:41.829Z</time>
      </trkpt>
      <trkpt lat="44.74316" lon="0.07611">
        <ele>102.976602</ele>
        <time>2022-07-11T19:29:43.569Z</time>
      </trkpt>
      <trkpt lat="44.74331" lon="0.07566">
        <ele>102.25005</ele>
        <time>2022-07-11T19:29:48.921Z</time>
      </trkpt>
      <trkpt lat="44.74361" lon="0.07582">
        <ele>100.872158</ele>
        <time>2022-07-11T19:29:53.488Z</time>
      </trkpt>
      <trkpt lat="44.74369" lon="0.07549">
        <ele>99.814213</ele>
        <time>2022-07-11T19:29:56.780Z</time>
      </trkpt>
      <trkpt lat="44.7438" lon="0.07537">
        <ele>99.213588</ele>
        <time>2022-07-11T19:29:58.579Z</time>
      </trkpt>
      <trkpt lat="44.74389" lon="0.07466">
        <ele>97.038616</ele>
        <time>2022-07-11T19:30:05.192Z</time>
      </trkpt>
      <trkpt lat="44.74409" lon="0.07394">
        <ele>94.539817</ele>
        <time>2022-07-11T19:30:11.750Z</time>
      </trkpt>
      <trkpt lat="44.7443" lon="0.07354">
        <ele>92.565816</ele>
        <time>2022-07-11T19:30:15.992Z</time>
      </trkpt>
      <trkpt lat="44.74459" lon="0.07323">
        <ele>90.547882</ele>
        <time>2022-07-11T19:30:20.346Z</time>
      </trkpt>
      <trkpt lat="44.7449" lon="0.07309">
        <ele>88.739498</ele>
        <time>2022-07-11T19:30:24.298Z</time>
      </trkpt>
      <trkpt lat="44.74521" lon="0.07306">
        <ele>86.989172</ele>
        <time>2022-07-11T19:30:28.181Z</time>
      </trkpt>
      <trkpt lat="44.74526" lon="0.07305">
        <ele>86.688012</ele>
        <time>2022-07-11T19:30:28.869Z</time>
      </trkpt>
      <trkpt lat="44.74583" lon="0.07062">
        <ele>83.560944</ele>
        <time>2022-07-11T19:30:56.446Z</time>
      </trkpt>
      <trkpt lat="44.74597" lon="0.07034">
        <ele>83.320501</ele>
        <time>2022-07-11T19:31:02.383Z</time>
      </trkpt>
      <trkpt lat="44.74607" lon="0.07022">
        <ele>83.526389</ele>
        <time>2022-07-11T19:31:06.342Z</time>
      </trkpt>
      <trkpt lat="44.74651" lon="0.06997">
        <ele>84.250969</ele>
        <time>2022-07-11T19:31:18.623Z</time>
      </trkpt>
      <trkpt lat="44.74701" lon="0.06965">
        <ele>85.082938</ele>
        <time>2022-07-11T19:31:32.832Z</time>
      </trkpt>
      <trkpt lat="44.74733" lon="0.06923">
        <ele>85.753479</ele>
        <time>2022-07-11T19:31:44.265Z</time>
      </trkpt>
      <trkpt lat="44.74894" lon="0.067">
        <ele>87.570537</ele>
        <time>2022-07-11T19:32:28.213Z</time>
      </trkpt>
      <trkpt lat="44.749" lon="0.06685">
        <ele>87.779301</ele>
        <time>2022-07-11T19:32:30.938Z</time>
      </trkpt>
      <trkpt lat="44.74906" lon="0.06659">
        <ele>88.123796</ele>
        <time>2022-07-11T19:32:35.590Z</time>
      </trkpt>
      <trkpt lat="44.74903" lon="0.06627">
        <ele>88.520935</ele>
        <time>2022-07-11T19:32:41.175Z</time>
      </trkpt>
      <trkpt lat="44.74885" lon="0.06587">
        <ele>89.102355</ele>
        <time>2022-07-11T19:32:49.967Z</time>
      </trkpt>
      <trkpt lat="44.74877" lon="0.06548">
        <ele>89.599584</ele>
        <time>2022-07-11T19:32:57.727Z</time>
      </trkpt>
      <trkpt lat="44.74883" lon="0.06511">
        <ele>90.069708</ele>
        <time>2022-07-11T19:33:05.178Z</time>
      </trkpt>
      <trkpt lat="44.74903" lon="0.06479">
        <ele>90.628641</ele>
        <time>2022-07-11T19:33:13.911Z</time>
      </trkpt>
      <trkpt lat="44.7496" lon="0.06423">
        <ele>91.937428</ele>
        <time>2022-07-11T19:33:32.937Z</time>
      </trkpt>
      <trkpt lat="44.75054" lon="0.06332">
        <ele>93.669399</ele>
        <time>2022-07-11T19:34:00.138Z</time>
      </trkpt>
      <trkpt lat="44.75081" lon="0.06294">
        <ele>93.735079</ele>
        <time>2022-07-11T19:34:06.839Z</time>
      </trkpt>
      <trkpt lat="44.75179" lon="0.0603">
        <ele>94.425179</ele>
        <time>2022-07-11T19:34:43.749Z</time>
      </trkpt>
      <trkpt lat="44.75221" lon="0.05983">
        <ele>94.70746</ele>
        <time>2022-07-11T19:34:56.306Z</time>
      </trkpt>
      <trkpt lat="44.75324" lon="0.05932">
        <ele>94.540141</ele>
        <time>2022-07-11T19:35:20.395Z</time>
      </trkpt>
      <trkpt lat="44.75327" lon="0.05931">
        <ele>94.526339</ele>
        <time>2022-07-11T19:35:21.063Z</time>
      </trkpt>
      <trkpt lat="44.75555" lon="0.05827">
        <ele>90.893122</ele>
        <time>2022-07-11T19:35:56.989Z</time>
      </trkpt>
      <trkpt lat="44.75573" lon="0.05812">
        <ele>90.419218</ele>
        <time>2022-07-11T19:35:59.802Z</time>
      </trkpt>
      <trkpt lat="44.75588" lon="0.05789">
        <ele>89.814924</ele>
        <time>2022-07-11T19:36:02.792Z</time>
      </trkpt>
      <trkpt lat="44.75604" lon="0.05749">
        <ele>88.327669</ele>
        <time>2022-07-11T19:36:07.044Z</time>
      </trkpt>
      <trkpt lat="44.75642" lon="0.05647">
        <ele>84.574967</ele>
        <time>2022-07-11T19:36:17.502Z</time>
      </trkpt>
      <trkpt lat="44.75672" lon="0.05566">
        <ele>81.588771</ele>
        <time>2022-07-11T19:36:25.687Z</time>
      </trkpt>
      <trkpt lat="44.75701" lon="0.05488">
        <ele>78.781126</ele>
        <time>2022-07-11T19:36:33.667Z</time>
      </trkpt>
      <trkpt lat="44.75746" lon="0.05366">
        <ele>74.462219</ele>
        <time>2022-07-11T19:36:46.276Z</time>
      </trkpt>
      <trkpt lat="44.75756" lon="0.05317">
        <ele>72.986629</ele>
        <time>2022-07-11T19:36:51.193Z</time>
      </trkpt>
      <trkpt lat="44.75761" lon="0.05206">
        <ele>70.042999</ele>
        <time>2022-07-11T19:37:02.002Z</time>
      </trkpt>
      <trkpt lat="44.7575" lon="0.05146">
        <ele>68.375272</ele>
        <time>2022-07-11T19:37:07.945Z</time>
      </trkpt>
      <trkpt lat="44.75727" lon="0.05109">
        <ele>67.08445</ele>
        <time>2022-07-11T19:37:12.465Z</time>
      </trkpt>
      <trkpt lat="44.7569" lon="0.0508">
        <ele>64.572337</ele>
        <time>2022-07-11T19:37:17.991Z</time>
      </trkpt>
      <trkpt lat="44.75666" lon="0.0507">
        <ele>63.116407</ele>
        <time>2022-07-11T19:37:21.080Z</time>
      </trkpt>
      <trkpt lat="44.7561" lon="0.05056">
        <ele>59.71451</ele>
        <time>2022-07-11T19:37:28.016Z</time>
      </trkpt>
      <trkpt lat="44.7552" lon="0.05061">
        <ele>54.671149</ele>
        <time>2022-07-11T19:37:38.815Z</time>
      </trkpt>
      <trkpt lat="44.75505" lon="0.05056">
        <ele>53.939198</ele>
        <time>2022-07-11T19:37:40.775Z</time>
      </trkpt>
      <trkpt lat="44.75495" lon="0.05044">
        <ele>53.336076</ele>
        <time>2022-07-11T19:37:42.220Z</time>
      </trkpt>
      <trkpt lat="44.75482" lon="0.05">
        <ele>51.695122</ele>
        <time>2022-07-11T19:37:46.522Z</time>
      </trkpt>
      <trkpt lat="44.75451" lon="0.04745">
        <ele>46.830185</ele>
        <time>2022-07-11T19:38:12.349Z</time>
      </trkpt>
      <trkpt lat="44.75467" lon="0.04678">
        <ele>46.421192</ele>
        <time>2022-07-11T19:38:23.006Z</time>
      </trkpt>
      <trkpt lat="44.7546" lon="0.04663">
        <ele>46.317126</ele>
        <time>2022-07-11T19:38:26.081Z</time>
      </trkpt>
      <trkpt lat="44.75461" lon="0.04644">
        <ele>46.206462</ele>
        <time>2022-07-11T19:38:29.518Z</time>
      </trkpt>
      <trkpt lat="44.75481" lon="0.04472">
        <ele>48.641886</ele>
        <time>2022-07-11T19:39:03.010Z</time>
      </trkpt>
      <trkpt lat="44.75488" lon="0.04426">
        <ele>49.349023</ele>
        <time>2022-07-11T19:39:12.779Z</time>
      </trkpt>
      <trkpt lat="44.75512" lon="0.04351">
        <ele>50.640772</ele>
        <time>2022-07-11T19:39:28.494Z</time>
      </trkpt>
      <trkpt lat="44.75517" lon="0.04299">
        <ele>51.510401</ele>
        <time>2022-07-11T19:39:38.446Z</time>
      </trkpt>
      <trkpt lat="44.75573" lon="0.04216">
        <ele>53.416458</ele>
        <time>2022-07-11T19:40:00.187Z</time>
      </trkpt>
      <trkpt lat="44.75582" lon="0.04193">
        <ele>53.854092</ele>
        <time>2022-07-11T19:40:05.099Z</time>
      </trkpt>
      <trkpt lat="44.75588" lon="0.04109">
        <ele>55.863462</ele>
        <time>2022-07-11T19:40:25.360Z</time>
      </trkpt>
      <trkpt lat="44.7564" lon="0.04013">
        <ele>58.955651</ele>
        <time>2022-07-11T19:40:52.716Z</time>
      </trkpt>
      <trkpt lat="44.75647" lon="0.03992">
        <ele>59.551332</ele>
        <time>2022-07-11T19:40:59.219Z</time>
      </trkpt>
      <trkpt lat="44.75547" lon="0.03934">
        <ele>64.462387</ele>
        <time>2022-07-11T19:41:37.358Z</time>
      </trkpt>
      <trkpt lat="44.75516" lon="0.03876">
        <ele>66.988314</ele>
        <time>2022-07-11T19:41:57.757Z</time>
      </trkpt>
      <trkpt lat="44.75484" lon="0.0386">
        <ele>68.637129</ele>
        <time>2022-07-11T19:42:09.775Z</time>
      </trkpt>
      <trkpt lat="44.75458" lon="0.03827">
        <ele>70.713461</ele>
        <time>2022-07-11T19:42:25.021Z</time>
      </trkpt>
      <trkpt lat="44.75456" lon="0.03821">
        <ele>71.055946</ele>
        <time>2022-07-11T19:42:27.060Z</time>
      </trkpt>
      <trkpt lat="44.7543" lon="0.03749">
        <ele>74.951542</ele>
        <time>2022-07-11T19:42:54.467Z</time>
      </trkpt>
      <trkpt lat="44.75427" lon="0.03713">
        <ele>76.655061</ele>
        <time>2022-07-11T19:43:05.762Z</time>
      </trkpt>
      <trkpt lat="44.75436" lon="0.03678">
        <ele>78.452101</ele>
        <time>2022-07-11T19:43:17.848Z</time>
      </trkpt>
      <trkpt lat="44.7546" lon="0.03656">
        <ele>80.388401</ele>
        <time>2022-07-11T19:43:32.370Z</time>
      </trkpt>
      <trkpt lat="44.75487" lon="0.03631">
        <ele>82.505014</ele>
        <time>2022-07-11T19:43:47.399Z</time>
      </trkpt>
      <trkpt lat="44.75551" lon="0.03626">
        <ele>86.701789</ele>
        <time>2022-07-11T19:44:16.683Z</time>
      </trkpt>
      <trkpt lat="44.75571" lon="0.03617">
        <ele>88.117389</ele>
        <time>2022-07-11T19:44:26.620Z</time>
      </trkpt>
      <trkpt lat="44.7559" lon="0.03582">
        <ele>90.127766</ele>
        <time>2022-07-11T19:44:42.128Z</time>
      </trkpt>
      <trkpt lat="44.7564" lon="0.03445">
        <ele>95.90419</ele>
        <time>2022-07-11T19:45:24.585Z</time>
      </trkpt>
      <trkpt lat="44.75661" lon="0.03407">
        <ele>97.385779</ele>
        <time>2022-07-11T19:45:37.707Z</time>
      </trkpt>
      <trkpt lat="44.75705" lon="0.0336">
        <ele>99.749725</ele>
        <time>2022-07-11T19:45:56.197Z</time>
      </trkpt>
      <trkpt lat="44.75787" lon="0.03291">
        <ele>102.467527</ele>
        <time>2022-07-11T19:46:24.639Z</time>
      </trkpt>
      <trkpt lat="44.75818" lon="0.03249">
        <ele>103.417429</ele>
        <time>2022-07-11T19:46:36.148Z</time>
      </trkpt>
      <trkpt lat="44.75847" lon="0.03228">
        <ele>104.123047</ele>
        <time>2022-07-11T19:46:44.343Z</time>
      </trkpt>
      <trkpt lat="44.75868" lon="0.03202">
        <ele>104.745109</ele>
        <time>2022-07-11T19:46:51.630Z</time>
      </trkpt>
      <trkpt lat="44.75894" lon="0.03125">
        <ele>105.673121</ele>
        <time>2022-07-11T19:47:06.305Z</time>
      </trkpt>
      <trkpt lat="44.75901" lon="0.031">
        <ele>105.94023</ele>
        <time>2022-07-11T19:47:10.491Z</time>
      </trkpt>
      <trkpt lat="44.75979" lon="0.02972">
        <ele>107.606984</ele>
        <time>2022-07-11T19:47:39.757Z</time>
      </trkpt>
      <trkpt lat="44.76073" lon="0.02769">
        <ele>109.600272</ele>
        <time>2022-07-11T19:48:19.495Z</time>
      </trkpt>
      <trkpt lat="44.76089" lon="0.02734">
        <ele>109.600385</ele>
        <time>2022-07-11T19:48:26.347Z</time>
      </trkpt>
      <trkpt lat="44.761" lon="0.02724">
        <ele>109.600434</ele>
        <time>2022-07-11T19:48:29.262Z</time>
      </trkpt>
      <trkpt lat="44.76098" lon="0.02713">
        <ele>109.600464</ele>
        <time>2022-07-11T19:48:30.922Z</time>
      </trkpt>
      <trkpt lat="44.76077" lon="0.02549">
        <ele>109.600914</ele>
        <time>2022-07-11T19:48:52.928Z</time>
      </trkpt>
      <trkpt lat="44.76099" lon="0.01984">
        <ele>101.206541</ele>
        <time>2022-07-11T19:49:54.031Z</time>
      </trkpt>
      <trkpt lat="44.76106" lon="0.01793">
        <ele>97.502573</ele>
        <time>2022-07-11T19:50:13.317Z</time>
      </trkpt>
      <trkpt lat="44.76114" lon="0.01686">
        <ele>98.081967</ele>
        <time>2022-07-11T19:50:25.548Z</time>
      </trkpt>
      <trkpt lat="44.76253" lon="0.01179">
        <ele>103.458703</ele>
        <time>2022-07-11T19:52:10.734Z</time>
      </trkpt>
      <trkpt lat="44.76273" lon="0.01015">
        <ele>104.741725</ele>
        <time>2022-07-11T19:52:35.020Z</time>
      </trkpt>
      <trkpt lat="44.76277" lon="0.00983">
        <ele>104.803082</ele>
        <time>2022-07-11T19:52:39.655Z</time>
      </trkpt>
      <trkpt lat="44.76281" lon="0.00951">
        <ele>104.863347</ele>
        <time>2022-07-11T19:52:43.858Z</time>
      </trkpt>
      <trkpt lat="44.76223" lon="0.00964">
        <ele>105.017264</ele>
        <time>2022-07-11T19:52:54.540Z</time>
      </trkpt>
      <trkpt lat="44.76149" lon="0.00966">
        <ele>105.370304</ele>
        <time>2022-07-11T19:53:08.732Z</time>
      </trkpt>
      <trkpt lat="44.76153" lon="0.00937">
        <ele>105.541641</ele>
        <time>2022-07-11T19:53:13.077Z</time>
      </trkpt>
      <trkpt lat="44.76179" lon="0.00842">
        <ele>106.128825</ele>
        <time>2022-07-11T19:53:28.456Z</time>
      </trkpt>
      <trkpt lat="44.76189" lon="0.00793">
        <ele>106.426319</ele>
        <time>2022-07-11T19:53:36.091Z</time>
      </trkpt>
      <trkpt lat="44.76192" lon="0.00756">
        <ele>106.679833</ele>
        <time>2022-07-11T19:53:41.755Z</time>
      </trkpt>
      <trkpt lat="44.76191" lon="0.0057">
        <ele>108.748317</ele>
        <time>2022-07-11T19:54:13.182Z</time>
      </trkpt>
      <trkpt lat="44.76177" lon="0.00541">
        <ele>109.140949</ele>
        <time>2022-07-11T19:54:19.850Z</time>
      </trkpt>
      <trkpt lat="44.76088" lon="0.00478">
        <ele>111.039619</ele>
        <time>2022-07-11T19:54:46.011Z</time>
      </trkpt>
      <trkpt lat="44.76048" lon="0.00422">
        <ele>112.143353</ele>
        <time>2022-07-11T19:55:00.186Z</time>
      </trkpt>
      <trkpt lat="44.76038" lon="0.00391">
        <ele>112.631152</ele>
        <time>2022-07-11T19:55:06.334Z</time>
      </trkpt>
      <trkpt lat="44.76036" lon="0.0037">
        <ele>112.931459</ele>
        <time>2022-07-11T19:55:10.168Z</time>
      </trkpt>
      <trkpt lat="44.76039" lon="0.00348">
        <ele>113.136114</ele>
        <time>2022-07-11T19:55:14.131Z</time>
      </trkpt>
      <trkpt lat="44.76055" lon="0.003">
        <ele>113.585284</ele>
        <time>2022-07-11T19:55:23.805Z</time>
      </trkpt>
      <trkpt lat="44.76082" lon="0.00226">
        <ele>114.286396</ele>
        <time>2022-07-11T19:55:38.238Z</time>
      </trkpt>
      <trkpt lat="44.76116" lon="0.00129">
        <ele>115.075041</ele>
        <time>2022-07-11T19:55:53.099Z</time>
      </trkpt>
      <trkpt lat="44.76128" lon="0.0008">
        <ele>114.83542</ele>
        <time>2022-07-11T19:55:59.862Z</time>
      </trkpt>
      <trkpt lat="44.76146" lon="4.0E-5">
        <ele>114.46724</ele>
        <time>2022-07-11T19:56:09.465Z</time>
      </trkpt>
      <trkpt lat="44.76152" lon="-0.00052">
        <ele>114.211126</ele>
        <time>2022-07-11T19:56:15.863Z</time>
      </trkpt>
      <trkpt lat="44.76141" lon="-0.0033">
        <ele>111.303082</ele>
        <time>2022-07-11T19:56:45.538Z</time>
      </trkpt>
      <trkpt lat="44.76144" lon="-0.00364">
        <ele>110.893309</ele>
        <time>2022-07-11T19:56:49.195Z</time>
      </trkpt>
      <trkpt lat="44.76155" lon="-0.00404">
        <ele>110.348171</ele>
        <time>2022-07-11T19:56:53.798Z</time>
      </trkpt>
      <trkpt lat="44.7625" lon="-0.00694">
        <ele>106.4957</ele>
        <time>2022-07-11T19:57:27.488Z</time>
      </trkpt>
      <trkpt lat="44.76255" lon="-0.00743">
        <ele>105.947416</ele>
        <time>2022-07-11T19:57:32.701Z</time>
      </trkpt>
      <trkpt lat="44.76247" lon="-0.00854">
        <ele>104.882899</ele>
        <time>2022-07-11T19:57:44.824Z</time>
      </trkpt>
      <trkpt lat="44.76219" lon="-0.01158">
        <ele>104.727254</ele>
        <time>2022-07-11T19:58:22.774Z</time>
      </trkpt>
      <trkpt lat="44.76209" lon="-0.01195">
        <ele>104.97209</ele>
        <time>2022-07-11T19:58:29.568Z</time>
      </trkpt>
      <trkpt lat="44.76143" lon="-0.0138">
        <ele>105.694807</ele>
        <time>2022-07-11T19:59:03.260Z</time>
      </trkpt>
      <trkpt lat="44.76127" lon="-0.01449">
        <ele>105.560378</ele>
        <time>2022-07-11T19:59:13.068Z</time>
      </trkpt>
      <trkpt lat="44.76124" lon="-0.0151">
        <ele>105.44804</ele>
        <time>2022-07-11T19:59:20.232Z</time>
      </trkpt>
      <trkpt lat="44.76137" lon="-0.01723">
        <ele>102.307643</ele>
        <time>2022-07-11T19:59:41.883Z</time>
      </trkpt>
      <trkpt lat="44.76119" lon="-0.01754">
        <ele>101.557149</ele>
        <time>2022-07-11T19:59:45.791Z</time>
      </trkpt>
      <trkpt lat="44.76011" lon="-0.01836">
        <ele>97.647892</ele>
        <time>2022-07-11T20:00:02.547Z</time>
      </trkpt>
      <trkpt lat="44.75986" lon="-0.01861">
        <ele>96.603919</ele>
        <time>2022-07-11T20:00:06.663Z</time>
      </trkpt>
      <trkpt lat="44.75659" lon="-0.02429">
        <ele>78.853974</ele>
        <time>2022-07-11T20:01:16.479Z</time>
      </trkpt>
      <trkpt lat="44.75634" lon="-0.02456">
        <ele>77.941062</ele>
        <time>2022-07-11T20:01:20.896Z</time>
      </trkpt>
      <trkpt lat="44.75585" lon="-0.02486">
        <ele>76.449485</ele>
        <time>2022-07-11T20:01:28.560Z</time>
      </trkpt>
      <trkpt lat="44.75568" lon="-0.02516">
        <ele>76.298673</ele>
        <time>2022-07-11T20:01:32.721Z</time>
      </trkpt>
      <trkpt lat="44.75562" lon="-0.02553">
        <ele>76.152201</ele>
        <time>2022-07-11T20:01:36.948Z</time>
      </trkpt>
      <trkpt lat="44.75546" lon="-0.02812">
        <ele>75.775259</ele>
        <time>2022-07-11T20:02:10.217Z</time>
      </trkpt>
      <trkpt lat="44.75551" lon="-0.02864">
        <ele>75.954309</ele>
        <time>2022-07-11T20:02:18.319Z</time>
      </trkpt>
      <trkpt lat="44.75597" lon="-0.02963">
        <ele>76.338634</ele>
        <time>2022-07-11T20:02:35.894Z</time>
      </trkpt>
      <trkpt lat="44.7562" lon="-0.02999">
        <ele>76.287136</ele>
        <time>2022-07-11T20:02:42.711Z</time>
      </trkpt>
      <trkpt lat="44.75769" lon="-0.03125">
        <ele>76.192574</ele>
        <time>2022-07-11T20:03:12.030Z</time>
      </trkpt>
      <trkpt lat="44.75779" lon="-0.03158">
        <ele>76.290496</ele>
        <time>2022-07-11T20:03:16.365Z</time>
      </trkpt>
      <trkpt lat="44.75766" lon="-0.03209">
        <ele>76.44113</ele>
        <time>2022-07-11T20:03:23.268Z</time>
      </trkpt>
      <trkpt lat="44.75725" lon="-0.03477">
        <ele>78.106216</ele>
        <time>2022-07-11T20:04:06.103Z</time>
      </trkpt>
      <trkpt lat="44.75733" lon="-0.03616">
        <ele>79.372732</ele>
        <time>2022-07-11T20:04:29.598Z</time>
      </trkpt>
      <trkpt lat="44.75731" lon="-0.03676">
        <ele>79.978607</ele>
        <time>2022-07-11T20:04:39.441Z</time>
      </trkpt>
      <trkpt lat="44.75729" lon="-0.03783">
        <ele>81.075598</ele>
        <time>2022-07-11T20:04:57.101Z</time>
      </trkpt>
      <trkpt lat="44.75734" lon="-0.03802">
        <ele>81.276938</ele>
        <time>2022-07-11T20:05:00.322Z</time>
      </trkpt>
      <trkpt lat="44.75748" lon="-0.0383">
        <ele>81.642407</ele>
        <time>2022-07-11T20:05:06.609Z</time>
      </trkpt>
      <trkpt lat="44.75818" lon="-0.0391">
        <ele>82.962308</ele>
        <time>2022-07-11T20:05:28.271Z</time>
      </trkpt>
      <trkpt lat="44.75833" lon="-0.03938">
        <ele>83.332266</ele>
        <time>2022-07-11T20:05:34.200Z</time>
      </trkpt>
      <trkpt lat="44.75841" lon="-0.03972">
        <ele>83.7096</ele>
        <time>2022-07-11T20:05:40.526Z</time>
      </trkpt>
      <trkpt lat="44.75868" lon="-0.04152">
        <ele>85.08341</ele>
        <time>2022-07-11T20:06:09.342Z</time>
      </trkpt>
      <trkpt lat="44.75921" lon="-0.04143">
        <ele>85.573342</ele>
        <time>2022-07-11T20:06:20.113Z</time>
      </trkpt>
      <trkpt lat="44.75947" lon="-0.04307">
        <ele>86.680402</ele>
        <time>2022-07-11T20:06:45.947Z</time>
      </trkpt>
      <trkpt lat="44.75949" lon="-0.04344">
        <ele>86.925129</ele>
        <time>2022-07-11T20:06:51.761Z</time>
      </trkpt>
      <trkpt lat="44.75869" lon="-0.04784">
        <ele>90.419388</ele>
        <time>2022-07-11T20:08:07.671Z</time>
      </trkpt>
      <trkpt lat="44.75853" lon="-0.04928">
        <ele>91.190978</ele>
        <time>2022-07-11T20:08:29.568Z</time>
      </trkpt>
      <trkpt lat="44.75837" lon="-0.0498">
        <ele>90.923746</ele>
        <time>2022-07-11T20:08:36.977Z</time>
      </trkpt>
      <trkpt lat="44.75756" lon="-0.05093">
        <ele>90.158611</ele>
        <time>2022-07-11T20:08:56.360Z</time>
      </trkpt>
      <trkpt lat="44.75585" lon="-0.05267">
        <ele>86.473747</ele>
        <time>2022-07-11T20:09:28.978Z</time>
      </trkpt>
      <trkpt lat="44.75564" lon="-0.05298">
        <ele>85.833761</ele>
        <time>2022-07-11T20:09:33.660Z</time>
      </trkpt>
      <trkpt lat="44.75552" lon="-0.05334">
        <ele>85.251829</ele>
        <time>2022-07-11T20:09:37.931Z</time>
      </trkpt>
      <trkpt lat="44.75549" lon="-0.05383">
        <ele>84.519793</ele>
        <time>2022-07-11T20:09:43.308Z</time>
      </trkpt>
      <trkpt lat="44.75567" lon="-0.05671">
        <ele>80.124731</ele>
        <time>2022-07-11T20:10:14.761Z</time>
      </trkpt>
      <trkpt lat="44.7559" lon="-0.05816">
        <ele>77.383081</ele>
        <time>2022-07-11T20:10:30.516Z</time>
      </trkpt>
      <trkpt lat="44.75614" lon="-0.05946">
        <ele>74.547997</ele>
        <time>2022-07-11T20:10:44.291Z</time>
      </trkpt>
      <trkpt lat="44.7562" lon="-0.06">
        <ele>73.283135</ele>
        <time>2022-07-11T20:10:49.849Z</time>
      </trkpt>
      <trkpt lat="44.75607" lon="-0.06039">
        <ele>72.006237</ele>
        <time>2022-07-11T20:10:54.085Z</time>
      </trkpt>
      <trkpt lat="44.75553" lon="-0.06122">
        <ele>68.67013</ele>
        <time>2022-07-11T20:11:04.872Z</time>
      </trkpt>
      <trkpt lat="44.75476" lon="-0.06188">
        <ele>64.535548</ele>
        <time>2022-07-11T20:11:17.365Z</time>
      </trkpt>
      <trkpt lat="44.75476" lon="-0.06199">
        <ele>64.11091</ele>
        <time>2022-07-11T20:11:18.355Z</time>
      </trkpt>
      <trkpt lat="44.75484" lon="-0.06205">
        <ele>63.597512</ele>
        <time>2022-07-11T20:11:19.683Z</time>
      </trkpt>
      <trkpt lat="44.75555" lon="-0.062">
        <ele>59.730065</ele>
        <time>2022-07-11T20:11:28.976Z</time>
      </trkpt>
      <trkpt lat="44.75578" lon="-0.06211">
        <ele>58.457932</ele>
        <time>2022-07-11T20:11:31.960Z</time>
      </trkpt>
      <trkpt lat="44.75623" lon="-0.06301">
        <ele>54.042738</ele>
        <time>2022-07-11T20:11:42.043Z</time>
      </trkpt>
      <trkpt lat="44.75645" lon="-0.06403">
        <ele>49.59621</ele>
        <time>2022-07-11T20:11:51.957Z</time>
      </trkpt>
      <trkpt lat="44.75668" lon="-0.06452">
        <ele>47.19217</ele>
        <time>2022-07-11T20:11:57.310Z</time>
      </trkpt>
      <trkpt lat="44.75702" lon="-0.0649">
        <ele>44.833271</ele>
        <time>2022-07-11T20:12:02.958Z</time>
      </trkpt>
      <trkpt lat="44.75763" lon="-0.06533">
        <ele>41.438672</ele>
        <time>2022-07-11T20:12:11.946Z</time>
      </trkpt>
      <trkpt lat="44.75778" lon="-0.0655">
        <ele>40.497073</ele>
        <time>2022-07-11T20:12:14.518Z</time>
      </trkpt>
      <trkpt lat="44.75793" lon="-0.06576">
        <ele>39.277292</ele>
        <time>2022-07-11T20:12:17.826Z</time>
      </trkpt>
      <trkpt lat="44.75848" lon="-0.06717">
        <ele>34.534749</ele>
        <time>2022-07-11T20:12:33.268Z</time>
      </trkpt>
      <trkpt lat="44.75797" lon="-0.06739">
        <ele>32.635795</ele>
        <time>2022-07-11T20:12:40.153Z</time>
      </trkpt>
      <trkpt lat="44.75743" lon="-0.06789">
        <ele>30.39994</ele>
        <time>2022-07-11T20:12:49.105Z</time>
      </trkpt>
      <trkpt lat="44.75693" lon="-0.06842">
        <ele>30.080296</ele>
        <time>2022-07-11T20:12:58.996Z</time>
      </trkpt>
      <trkpt lat="44.75633" lon="-0.06906">
        <ele>29.703296</ele>
        <time>2022-07-11T20:13:11.992Z</time>
      </trkpt>
      <trkpt lat="44.75601" lon="-0.06953">
        <ele>29.616882</ele>
        <time>2022-07-11T20:13:21.123Z</time>
      </trkpt>
      <trkpt lat="44.75448" lon="-0.07271">
        <ele>33.757029</ele>
        <time>2022-07-11T20:14:27.960Z</time>
      </trkpt>
      <trkpt lat="44.75418" lon="-0.07322">
        <ele>34.515998</ele>
        <time>2022-07-11T20:14:40.479Z</time>
      </trkpt>
      <trkpt lat="44.75381" lon="-0.07364">
        <ele>35.03757</ele>
        <time>2022-07-11T20:14:51.019Z</time>
      </trkpt>
      <trkpt lat="44.75333" lon="-0.07399">
        <ele>35.04261</ele>
        <time>2022-07-11T20:15:01.802Z</time>
      </trkpt>
      <trkpt lat="44.7531" lon="-0.07503">
        <ele>35.049879</ele>
        <time>2022-07-11T20:15:14.891Z</time>
      </trkpt>
      <trkpt lat="44.75312" lon="-0.07515">
        <ele>35.050695</ele>
        <time>2022-07-11T20:15:16.169Z</time>
      </trkpt>
      <trkpt lat="44.75317" lon="-0.07525">
        <ele>35.051535</ele>
        <time>2022-07-11T20:15:17.603Z</time>
      </trkpt>
      <trkpt lat="44.75359" lon="-0.07546">
        <ele>35.132452</ele>
        <time>2022-07-11T20:15:24.972Z</time>
      </trkpt>
      <trkpt lat="44.75372" lon="-0.07551">
        <ele>35.168219</ele>
        <time>2022-07-11T20:15:27.041Z</time>
      </trkpt>
      <trkpt lat="44.75372" lon="-0.07551">
        <ele>35.169666</ele>
        <time>2022-07-11T20:15:27.120Z</time>
      </trkpt>
      <trkpt lat="44.75376" lon="-0.07553">
        <ele>35.180713</ele>
        <time>2022-07-11T20:15:27.710Z</time>
      </trkpt>
      <trkpt lat="44.75386" lon="-0.07559">
        <ele>35.211813</ele>
        <time>2022-07-11T20:15:29.472Z</time>
      </trkpt>
      <trkpt lat="44.75413" lon="-0.07598">
        <ele>35.319291</ele>
        <time>2022-07-11T20:15:36.007Z</time>
      </trkpt>
      <trkpt lat="44.7542" lon="-0.07621">
        <ele>35.368629</ele>
        <time>2022-07-11T20:15:39.148Z</time>
      </trkpt>
      <trkpt lat="44.75424" lon="-0.07665">
        <ele>35.456063</ele>
        <time>2022-07-11T20:15:45.110Z</time>
      </trkpt>
      <trkpt lat="44.75395" lon="-0.07797">
        <ele>39.10342</ele>
        <time>2022-07-11T20:16:11.810Z</time>
      </trkpt>
      <trkpt lat="44.7538" lon="-0.07836">
        <ele>40.858548</ele>
        <time>2022-07-11T20:16:24.350Z</time>
      </trkpt>
      <trkpt lat="44.75346" lon="-0.07895">
        <ele>43.903384</ele>
        <time>2022-07-11T20:16:50.551Z</time>
      </trkpt>
      <trkpt lat="44.7534" lon="-0.07927">
        <ele>45.221034</ele>
        <time>2022-07-11T20:17:03.193Z</time>
      </trkpt>
      <trkpt lat="44.7541" lon="-0.08107">
        <ele>57.779311</ele>
        <time>2022-07-11T20:18:24.096Z</time>
      </trkpt>
      <trkpt lat="44.75434" lon="-0.08138">
        <ele>60.614901</ele>
        <time>2022-07-11T20:18:41.728Z</time>
      </trkpt>
      <trkpt lat="44.75496" lon="-0.08189">
        <ele>63.382713</ele>
        <time>2022-07-11T20:19:13.141Z</time>
      </trkpt>
      <trkpt lat="44.7556" lon="-0.08301">
        <ele>66.587705</ele>
        <time>2022-07-11T20:19:37.460Z</time>
      </trkpt>
      <trkpt lat="44.75582" lon="-0.08348">
        <ele>66.736808</ele>
        <time>2022-07-11T20:19:43.863Z</time>
      </trkpt>
      <trkpt lat="44.75607" lon="-0.08459">
        <ele>65.649745</ele>
        <time>2022-07-11T20:19:56.632Z</time>
      </trkpt>
      <trkpt lat="44.75618" lon="-0.08485">
        <ele>65.369027</ele>
        <time>2022-07-11T20:19:59.873Z</time>
      </trkpt>
      <trkpt lat="44.75653" lon="-0.08535">
        <ele>64.718342</ele>
        <time>2022-07-11T20:20:07.143Z</time>
      </trkpt>
      <trkpt lat="44.75674" lon="-0.08574">
        <ele>64.103836</ele>
        <time>2022-07-11T20:20:12.181Z</time>
      </trkpt>
      <trkpt lat="44.75707" lon="-0.08663">
        <ele>62.825245</ele>
        <time>2022-07-11T20:20:22.618Z</time>
      </trkpt>
      <trkpt lat="44.75715" lon="-0.08697">
        <ele>62.379975</ele>
        <time>2022-07-11T20:20:26.303Z</time>
      </trkpt>
      <trkpt lat="44.75733" lon="-0.08797">
        <ele>61.487827</ele>
        <time>2022-07-11T20:20:37.528Z</time>
      </trkpt>
      <trkpt lat="44.75759" lon="-0.08937">
        <ele>61.447235</ele>
        <time>2022-07-11T20:20:55.498Z</time>
      </trkpt>
      <trkpt lat="44.75772" lon="-0.08964">
        <ele>61.438235</ele>
        <time>2022-07-11T20:21:00.486Z</time>
      </trkpt>
      <trkpt lat="44.75795" lon="-0.08989">
        <ele>61.426672</ele>
        <time>2022-07-11T20:21:06.908Z</time>
      </trkpt>
      <trkpt lat="44.75896" lon="-0.0906">
        <ele>61.926144</ele>
        <time>2022-07-11T20:21:31.712Z</time>
      </trkpt>
      <trkpt lat="44.75955" lon="-0.09152">
        <ele>62.177492</ele>
        <time>2022-07-11T20:21:47.213Z</time>
      </trkpt>
      <trkpt lat="44.75916" lon="-0.09191">
        <ele>62.055557</ele>
        <time>2022-07-11T20:21:54.564Z</time>
      </trkpt>
      <trkpt lat="44.7584" lon="-0.09221">
        <ele>61.853784</ele>
        <time>2022-07-11T20:22:08.703Z</time>
      </trkpt>
      <trkpt lat="44.75796" lon="-0.09278">
        <ele>62.527378</ele>
        <time>2022-07-11T20:22:21.475Z</time>
      </trkpt>
      <trkpt lat="44.75784" lon="-0.09288">
        <ele>62.897852</ele>
        <time>2022-07-11T20:22:24.327Z</time>
      </trkpt>
      <trkpt lat="44.75765" lon="-0.0929">
        <ele>63.439686</ele>
        <time>2022-07-11T20:22:30.817Z</time>
      </trkpt>
      <trkpt lat="44.75722" lon="-0.09273">
        <ele>64.659583</ele>
        <time>2022-07-11T20:22:43.695Z</time>
      </trkpt>
      <trkpt lat="44.75679" lon="-0.09277">
        <ele>65.836202</ele>
        <time>2022-07-11T20:22:57.231Z</time>
      </trkpt>
      <trkpt lat="44.75605" lon="-0.09262">
        <ele>68.314632</ele>
        <time>2022-07-11T20:23:25.977Z</time>
      </trkpt>
      <trkpt lat="44.75502" lon="-0.0928">
        <ele>72.200409</ele>
        <time>2022-07-11T20:24:00.985Z</time>
      </trkpt>
      <trkpt lat="44.75451" lon="-0.09315">
        <ele>73.797067</ele>
        <time>2022-07-11T20:24:17.914Z</time>
      </trkpt>
      <trkpt lat="44.75395" lon="-0.09361">
        <ele>74.792349</ele>
        <time>2022-07-11T20:24:34.770Z</time>
      </trkpt>
      <trkpt lat="44.7538" lon="-0.09382">
        <ele>75.119789</ele>
        <time>2022-07-11T20:24:39.939Z</time>
      </trkpt>
      <trkpt lat="44.75253" lon="-0.09603">
        <ele>77.310578</ele>
        <time>2022-07-11T20:25:22.245Z</time>
      </trkpt>
      <trkpt lat="44.75188" lon="-0.09705">
        <ele>78.836308</ele>
        <time>2022-07-11T20:25:45.313Z</time>
      </trkpt>
      <trkpt lat="44.75172" lon="-0.09748">
        <ele>79.643325</ele>
        <time>2022-07-11T20:25:54.781Z</time>
      </trkpt>
      <trkpt lat="44.75142" lon="-0.09804">
        <ele>80.783594</ele>
        <time>2022-07-11T20:26:09.114Z</time>
      </trkpt>
      <trkpt lat="44.75012" lon="-0.09974">
        <ele>85.832847</ele>
        <time>2022-07-11T20:27:05.018Z</time>
      </trkpt>
      <trkpt lat="44.74973" lon="-0.09999">
        <ele>87.131609</ele>
        <time>2022-07-11T20:27:17.831Z</time>
      </trkpt>
      <trkpt lat="44.74912" lon="-0.10022">
        <ele>88.282063</ele>
        <time>2022-07-11T20:27:35.520Z</time>
      </trkpt>
      <trkpt lat="44.74899" lon="-0.10036">
        <ele>88.557105</ele>
        <time>2022-07-11T20:27:39.662Z</time>
      </trkpt>
      <trkpt lat="44.74889" lon="-0.10059">
        <ele>88.871438</ele>
        <time>2022-07-11T20:27:44.284Z</time>
      </trkpt>
      <trkpt lat="44.74887" lon="-0.10095">
        <ele>89.306282</ele>
        <time>2022-07-11T20:27:50.409Z</time>
      </trkpt>
      <trkpt lat="44.74934" lon="-0.10322">
        <ele>91.708558</ele>
        <time>2022-07-11T20:28:26.135Z</time>
      </trkpt>
      <trkpt lat="44.74937" lon="-0.10375">
        <ele>92.205398</ele>
        <time>2022-07-11T20:28:34.997Z</time>
      </trkpt>
      <trkpt lat="44.74932" lon="-0.1044">
        <ele>92.94937</ele>
        <time>2022-07-11T20:28:46.371Z</time>
      </trkpt>
      <trkpt lat="44.74905" lon="-0.10784">
        <ele>100.058326</ele>
        <time>2022-07-11T20:29:59.021Z</time>
      </trkpt>
      <trkpt lat="44.74901" lon="-0.10885">
        <ele>102.396476</ele>
        <time>2022-07-11T20:30:22.082Z</time>
      </trkpt>
      <trkpt lat="44.74892" lon="-0.11024">
        <ele>104.557947</ele>
        <time>2022-07-11T20:30:53.276Z</time>
      </trkpt>
      <trkpt lat="44.74858" lon="-0.11225">
        <ele>105.781294</ele>
        <time>2022-07-11T20:31:23.986Z</time>
      </trkpt>
      <trkpt lat="44.74852" lon="-0.11262">
        <ele>105.276406</ele>
        <time>2022-07-11T20:31:28.035Z</time>
      </trkpt>
      <trkpt lat="44.74855" lon="-0.11299">
        <ele>104.782507</ele>
        <time>2022-07-11T20:31:31.878Z</time>
      </trkpt>
      <trkpt lat="44.74841" lon="-0.11333">
        <ele>104.255977</ele>
        <time>2022-07-11T20:31:35.832Z</time>
      </trkpt>
      <trkpt lat="44.74793" lon="-0.11603">
        <ele>99.36567</ele>
        <time>2022-07-11T20:32:02.848Z</time>
      </trkpt>
      <trkpt lat="44.74787" lon="-0.11665">
        <ele>98.149326</ele>
        <time>2022-07-11T20:32:09.274Z</time>
      </trkpt>
      <trkpt lat="44.74814" lon="-0.11954">
        <ele>95.373258</ele>
        <time>2022-07-11T20:32:41.374Z</time>
      </trkpt>
      <trkpt lat="44.74836" lon="-0.12107">
        <ele>94.442954</ele>
        <time>2022-07-11T20:32:59.209Z</time>
      </trkpt>
      <trkpt lat="44.74867" lon="-0.12331">
        <ele>93.511577</ele>
        <time>2022-07-11T20:33:26.263Z</time>
      </trkpt>
      <trkpt lat="44.74911" lon="-0.12845">
        <ele>92.014071</ele>
        <time>2022-07-11T20:34:29.209Z</time>
      </trkpt>
      <trkpt lat="44.74903" lon="-0.12892">
        <ele>91.836801</ele>
        <time>2022-07-11T20:34:34.663Z</time>
      </trkpt>
      <trkpt lat="44.74807" lon="-0.13124">
        <ele>89.810723</ele>
        <time>2022-07-11T20:35:04.747Z</time>
      </trkpt>
      <trkpt lat="44.74807" lon="-0.13156">
        <ele>89.468276</ele>
        <time>2022-07-11T20:35:08.294Z</time>
      </trkpt>
      <trkpt lat="44.74834" lon="-0.13318">
        <ele>87.399561</ele>
        <time>2022-07-11T20:35:26.305Z</time>
      </trkpt>
      <trkpt lat="44.74853" lon="-0.13369">
        <ele>86.6831</ele>
        <time>2022-07-11T20:35:32.292Z</time>
      </trkpt>
      <trkpt lat="44.74932" lon="-0.13522">
        <ele>82.764545</ele>
        <time>2022-07-11T20:35:50.847Z</time>
      </trkpt>
      <trkpt lat="44.74943" lon="-0.13553">
        <ele>82.043758</ele>
        <time>2022-07-11T20:35:54.087Z</time>
      </trkpt>
      <trkpt lat="44.74964" lon="-0.13989">
        <ele>73.664095</ele>
        <time>2022-07-11T20:36:36.986Z</time>
      </trkpt>
      <trkpt lat="44.74965" lon="-0.14351">
        <ele>70.66772</ele>
        <time>2022-07-11T20:37:18.581Z</time>
      </trkpt>
      <trkpt lat="44.7498" lon="-0.14621">
        <ele>69.871824</ele>
        <time>2022-07-11T20:37:50.631Z</time>
      </trkpt>
      <trkpt lat="44.7497" lon="-0.14955">
        <ele>72.199124</ele>
        <time>2022-07-11T20:38:37.533Z</time>
      </trkpt>
      <trkpt lat="44.74871" lon="-0.14942">
        <ele>74.712686</ele>
        <time>2022-07-11T20:39:09.882Z</time>
      </trkpt>
      <trkpt lat="44.74813" lon="-0.14935">
        <ele>76.032785</ele>
        <time>2022-07-11T20:39:30.887Z</time>
      </trkpt>
      <trkpt lat="44.74787" lon="-0.14943">
        <ele>76.592794</ele>
        <time>2022-07-11T20:39:39.672Z</time>
      </trkpt>
      <trkpt lat="44.74683" lon="-0.15057">
        <ele>78.300703</ele>
        <time>2022-07-11T20:40:09.614Z</time>
      </trkpt>
      <trkpt lat="44.74531" lon="-0.15166">
        <ele>74.244232</ele>
        <time>2022-07-11T20:40:33.024Z</time>
      </trkpt>
      <trkpt lat="44.74402" lon="-0.15193">
        <ele>69.734923</ele>
        <time>2022-07-11T20:40:50.350Z</time>
      </trkpt>
      <trkpt lat="44.74387" lon="-0.15363">
        <ele>66.249045</ele>
        <time>2022-07-11T20:41:07.986Z</time>
      </trkpt>
      <trkpt lat="44.74366" lon="-0.15512">
        <ele>63.502975</ele>
        <time>2022-07-11T20:41:24.248Z</time>
      </trkpt>
      <trkpt lat="44.74361" lon="-0.1562">
        <ele>62.065034</ele>
        <time>2022-07-11T20:41:36.008Z</time>
      </trkpt>
      <trkpt lat="44.74337" lon="-0.15876">
        <ele>59.282595</ele>
        <time>2022-07-11T20:42:05.128Z</time>
      </trkpt>
      <trkpt lat="44.74308" lon="-0.16362">
        <ele>56.418065</ele>
        <time>2022-07-11T20:43:04.127Z</time>
      </trkpt>
      <trkpt lat="44.74296" lon="-0.1658">
        <ele>54.640309</ele>
        <time>2022-07-11T20:43:30.869Z</time>
      </trkpt>
      <trkpt lat="44.74291" lon="-0.16666">
        <ele>53.506234</ele>
        <time>2022-07-11T20:43:39.805Z</time>
      </trkpt>
      <trkpt lat="44.74276" lon="-0.16714">
        <ele>52.817856</ele>
        <time>2022-07-11T20:43:45.046Z</time>
      </trkpt>
      <trkpt lat="44.74251" lon="-0.16725">
        <ele>52.293583</ele>
        <time>2022-07-11T20:43:48.695Z</time>
      </trkpt>
      <trkpt lat="44.74215" lon="-0.16725">
        <ele>51.276827</ele>
        <time>2022-07-11T20:43:53.684Z</time>
      </trkpt>
      <trkpt lat="44.74156" lon="-0.16725">
        <ele>49.599192</ele>
        <time>2022-07-11T20:44:01.805Z</time>
      </trkpt>
      <trkpt lat="44.7414" lon="-0.16742">
        <ele>49.023876</ele>
        <time>2022-07-11T20:44:04.594Z</time>
      </trkpt>
      <trkpt lat="44.7412" lon="-0.16881">
        <ele>46.516213</ele>
        <time>2022-07-11T20:44:18.797Z</time>
      </trkpt>
      <trkpt lat="44.74102" lon="-0.1692">
        <ele>45.840439</ele>
        <time>2022-07-11T20:44:23.818Z</time>
      </trkpt>
      <trkpt lat="44.74091" lon="-0.16934">
        <ele>45.547987</ele>
        <time>2022-07-11T20:44:26.040Z</time>
      </trkpt>
      <trkpt lat="44.74067" lon="-0.16945">
        <ele>45.04852</ele>
        <time>2022-07-11T20:44:29.848Z</time>
      </trkpt>
      <trkpt lat="44.73994" lon="-0.1694">
        <ele>43.515354</ele>
        <time>2022-07-11T20:44:41.037Z</time>
      </trkpt>
      <trkpt lat="44.73914" lon="-0.16973">
        <ele>41.188622</ele>
        <time>2022-07-11T20:44:52.237Z</time>
      </trkpt>
      <trkpt lat="44.73898" lon="-0.16988">
        <ele>40.667075</ele>
        <time>2022-07-11T20:44:54.789Z</time>
      </trkpt>
      <trkpt lat="44.73879" lon="-0.17043">
        <ele>39.444361</ele>
        <time>2022-07-11T20:45:00.984Z</time>
      </trkpt>
      <trkpt lat="44.73769" lon="-0.1702">
        <ele>35.9</ele>
      </trkpt>
      <trkpt lat="44.73717" lon="-0.16879">
        <ele>38.1</ele>
      </trkpt>
      <trkpt lat="44.73754" lon="-0.1675">
        <ele>46.4</ele>
      </trkpt>
      <trkpt lat="44.73748" lon="-0.16497">
        <ele>52.1</ele>
      </trkpt>
      <trkpt lat="44.73577" lon="-0.16467">
        <ele>38</ele>
      </trkpt>
      <trkpt lat="44.73528" lon="-0.16651">
        <ele>36.9</ele>
      </trkpt>
      <trkpt lat="44.7322" lon="-0.16823">
        <ele>52.1</ele>
      </trkpt>
      <trkpt lat="44.73156" lon="-0.16831">
        <ele>53.4</ele>
      </trkpt>
      <trkpt lat="44.73013" lon="-0.1684">
        <ele>54.2</ele>
      </trkpt>
      <trkpt lat="44.7294" lon="-0.16857">
        <ele>52.8</ele>
      </trkpt>
      <trkpt lat="44.72964" lon="-0.1696">
        <ele>50.1</ele>
      </trkpt>
    </trkseg>
  </trk>
</gpx>